Terminal Aerodrome Forecast
Issued by NWS

Current Version | Previous Version | Text Only | Print | Product List | Glossary On
Versions: 1 2 3 4 5 6 7 8 9 10 11 12
000
FTUS44 KLIX 292300
TAFMSY
TAF
KMSY 292332Z 3000/3024 14007KT P6SM VCSH SCT022 BKN100
      TEMPO 3000/3004 2SM SHRA SCT008 BKN022
     FM301400 16011KT 6SM -SHRA BKN025 OVC050
      TEMPO 3016/3020 2SM TSRA BKN025CB=

USA.gov is the U.S. government's official web portal to all federal, state and local government web resources and services.